x

Western Prince William Sound (46081) Wave Buoy

11:50pm - Sun 25th Jan 2015 All times are UTC.

  • Sig Wave height 3.3ft
  • Peak Period 3s
  • Average Period 3s
  • Wind
    31mph, 38mph gusts
  • Sea Temp 46°f
  • Air Temp 23°f
  • Sea Pressure 1003.8mb

More Historic Weather Station data

Upgrade to MSW Pro to gain access to the past 30 days of data for over 8000 Wavebouys and Weather Stations around the globe.

Join Pro

Comparision Forecast

View Surf forecast
   
Sun 01/25 11:50pm 3.5ft 3s 3s 31 38 mph 1003.8mb 46f 23f
10:50pm 2.5ft 3s 3s 31 38 mph 1003mb 46f 23f
9:50pm 3ft 3s 3s 31 38 mph 1002.3mb 46f 23f
8:50pm 2.5ft 3s 3s 31 38 mph 1001.6mb 46f 22f
7:50pm 3ft 3s 3s 34 40 mph 1000.6mb 45f 23f
6:50pm 3ft 3s 3s 34 40 mph 999.4mb 45f 23f
5:50pm 3ft 3s 3s 31 38 mph 998.4mb 44f 22f
4:50pm 3ft 3s 3s 34 38 mph 997.2mb 44f 23f
3:50pm 3ft 4s 3s 34 40 mph 996.2mb 44f 23f
2:50pm 3.5ft 4s 3s 34 40 mph 995.2mb 44f 24f
1:50pm 3.5ft 4s 3s 34 43 mph 994.2mb 45f 24f
12:50pm 3ft 3s 3s 34 40 mph 993.3mb 46f 24f
11:50am 3.5ft 4s 3s 34 40 mph 992.3mb 45f 25f
10:50am 3.5ft 4s 3s 34 40 mph 991.5mb 45f 26f
9:50am 3ft 3s 3s 36 45 mph 990.9mb 45f 25f
8:50am 3.5ft 3s 3s 36 45 mph 990.5mb 44f 26f
7:50am 3.5ft 3s 3s 36 43 mph 990.1mb 44f 26f
6:50am 3.5ft 4s 3s 36 43 mph 989.9mb 44f 26f
5:50am 3.5ft 3s 3s 36 45 mph 989.7mb 43f 27f
4:50am 3.5ft 4s 3s 36 43 mph 989.7mb 43f 28f
3:50am 3.5ft 4s 3s 34 40 mph 989.9mb 43f 29f
2:50am 3.5ft 4s 3s 34 40 mph 990.2mb 43f 29f
1:50am 3ft 4s 3s 31 38 mph 990.7mb 42f 29f
12:50am 3ft 4s 3s 31 38 mph 991.2mb 42f 29f
Sat 01/24 11:50pm 2.5ft 3s 3s 31 38 mph 992.2mb 41f 28f
10:50pm 2.5ft 3s 3s 29 36 mph 993.3mb 41f 28f
9:50pm 1.6ft 3s 3s 20 27 mph 994.8mb 41f 29f
8:50pm 1.3ft 3s 3s 18 25 mph 996mb 41f 30f
7:50pm 1ft 3s 3s 11 13 mph 997mb 41f 33f
6:50pm 1.3ft 3s 3s 13
mph
997.6mb 41f 34f
5:50pm 0.7ft  -  3s 9 13 mph 998mb 41f 35f
4:50pm 0.7ft  -  3s 2 4 mph 997.9mb 41f 36f
3:50pm 0.3ft  -  3s 9
mph
997.5mb 41f 35f
2:50pm 0.7ft  -  3s 9 11 mph 997.2mb 41f 34f
1:50pm 1ft 3s 3s 9 11 mph 996.6mb 41f 34f
12:50pm 1ft 3s 3s 13 18 mph 995.9mb 41f 34f
11:50am 1.3ft 3s 3s 16 20 mph 995.3mb 41f 33f
10:50am 1.3ft 3s 3s 16 20 mph 994.7mb 41f 34f
9:50am 1ft 3s 3s 13 20 mph 994.1mb 41f 34f
8:50am 1ft 3s 3s 7 13 mph 993.7mb 41f 35f
7:50am 0.7ft  -  2s 7 11 mph 993.1mb 41f 35f
6:50am 0.3ft  -  2s 7 9 mph 992.4mb 41f 35f
5:50am 0.3ft  -  3s 7 9 mph 991.8mb 41f 35f
4:50am 0.3ft  -  3s 7
mph
991.3mb 41f 36f
3:50am 0.3ft  -  3s 7 9 mph 990.6mb 42f 36f
2:50am 0.3ft  -  3s 7 9 mph 990.1mb 41f 37f
1:50am 0.7ft  -  3s 7
mph
989.7mb 42f 38f
12:50am 1ft 3s 3s 9 11 mph 989.3mb 41f 39f
Fri 01/23 11:50pm 1.3ft 3s 3s 13
mph
989.2mb 42f 38f
10:50pm 1.6ft 3s 3s 18 22 mph 989.4mb 41f 38f
9:50pm 1.3ft 3s 3s 18 20 mph 989.9mb 41f 39f
8:50pm 1.3ft 3s 3s 16 20 mph 990.6mb 41f 39f
7:50pm 1ft 3s 3s 16 18 mph 991.1mb 41f 38f
6:50pm 0.7ft  -  3s 13 16 mph 991.5mb 41f 38f
5:50pm 0.7ft  -  3s 13 16 mph 991.6mb 41f 38f
4:50pm 1ft 2s 3s 16 18 mph 991.3mb 41f 38f
3:50pm 1ft 2s 3s 16 18 mph 991.2mb 41f 38f
2:50pm 0.7ft  -  3s 16 18 mph 990.7mb 41f 38f
1:50pm 0.3ft  -  3s 11 13 mph 990.3mb 41f 38f
12:50pm 0.3ft  -  3s 9 11 mph 989.9mb 40f 38f
11:50am 0.3ft  -  3s 4 7 mph 990mb 39f 38f
10:50am 0.3ft  -  4s 2 4 mph 989.8mb 39f 36f
9:50am 0.3ft  -  4s 4 7 mph 989.7mb 39f 35f
8:50am  -   -  4s 9 11 mph 989.3mb 39f 35f
7:50am  -   -  4s 4 7 mph 989mb 39f 35f
6:50am  -   -  4s 4 7 mph 988.7mb 39f 35f
5:50am 0.3ft  -  3s 7
mph
988.7mb 39f 35f
4:50am 0.3ft  -  2s 11
mph
988.3mb 39f 34f
3:50am 0.3ft  -  3s 11 13 mph 988.1mb 39f 34f
2:50am 0.3ft  -  3s 9 11 mph 988.2mb 40f 34f
1:50am 0.7ft  -  3s 9
mph
988.3mb 40f 33f
12:50am 0.7ft  -  3s 9
mph
988.4mb 40f 33f
Thu 01/22 11:50pm  -   -   -  9
mph
- - 32f
10:50pm 1.3ft 3s 3s 9 13 mph 990.2mb 38f 33f
9:50pm 0.7ft  -  2s 13
mph
991.3mb 38f 32f
8:50pm  -   -  4s 2 4 mph 992.6mb 38f 31f
7:50pm  -   -  3s 2 4 mph 993.4mb 39f 31f
6:50pm  -   -  4s 4 7 mph 993.9mb 39f 32f
5:50pm 0.3ft  -  4s 7 9 mph 993.7mb 39f 32f
4:50pm 0.3ft  -  4s 4
mph
993.3mb 38f 32f
3:50pm 0.3ft  -  3s 4 7 mph 993.1mb 38f 32f
2:50pm 0.3ft  -  3s 4
mph
993mb 39f 32f
1:50pm 0.3ft  -  3s 7
mph
992.5mb 39f 31f
12:50pm 0.3ft  -  2s 7
mph
992mb 40f 31f
11:50am 0.7ft  -  3s 7 9 mph 991.3mb 40f 30f
10:50am 0.7ft  -  3s 11 13 mph 990.4mb 40f 31f
9:50am 1ft 3s 3s 11 13 mph 989.7mb 40f 31f
8:50am 1.3ft 3s 3s 11 16 mph 989mb 39f 30f
7:50am 1ft 2s 3s 20 22 mph 988.1mb 41f 31f
6:50am 1.3ft 2s 3s 18 27 mph 987.4mb 41f 31f
5:50am 1.6ft 3s 3s 22 29 mph 986.7mb 41f 31f
4:50am 1.6ft 3s 3s 27 34 mph 986.2mb 41f 31f
3:50am 1.6ft 2s 3s 25 29 mph 986mb 40f 32f
2:50am 1ft 2s 3s 20 27 mph 985.8mb 40f 33f
1:50am 1ft 2s 2s 11 18 mph 986.2mb 40f 33f
12:50am 1.3ft 3s 3s 9 16 mph 986.6mb 40f 34f